createdAt,value
2022-08-14T00:00:01.821Z,35.67
2022-08-14T00:00:31.922Z,35.67
2022-08-14T00:01:01.989Z,35.67
2022-08-14T00:01:32.213Z,35.67
2022-08-14T00:02:02.416Z,35.69
2022-08-14T00:02:32.234Z,35.67
2022-08-14T00:03:02.257Z,35.69
2022-08-14T00:03:32.311Z,35.66
2022-08-14T00:04:02.310Z,35.66
2022-08-14T00:04:35.665Z,35.67
2022-08-14T00:05:02.360Z,35.67
2022-08-14T00:05:32.402Z,35.67
2022-08-14T00:06:02.408Z,35.66
2022-08-14T00:06:32.426Z,35.65
2022-08-14T00:07:02.510Z,35.66
2022-08-14T00:07:32.538Z,35.65
2022-08-14T00:08:02.581Z,35.63
2022-08-14T00:08:45.031Z,35.65
2022-08-14T00:09:02.683Z,35.65
2022-08-14T00:09:33.062Z,35.66
2022-08-14T00:10:49.803Z,35.63
2022-08-14T00:10:52.198Z,35.65
2022-08-14T00:11:02.910Z,35.63
2022-08-14T00:11:32.962Z,35.63
2022-08-14T00:12:03.001Z,35.63
2022-08-14T00:12:39.413Z,35.65
2022-08-14T00:13:06.973Z,35.63
2022-08-14T00:13:33.215Z,35.66
2022-08-14T00:14:03.252Z,35.63
2022-08-14T00:14:33.354Z,35.63
2022-08-14T00:15:03.401Z,35.66
2022-08-14T00:15:43.758Z,35.62
2022-08-14T00:16:03.499Z,35.65
2022-08-14T00:16:41.306Z,35.65
2022-08-14T00:17:03.587Z,35.63
2022-08-14T00:17:38.068Z,35.63
2022-08-14T00:18:03.670Z,35.63
2022-08-14T00:19:06.017Z,35.63
2022-08-14T00:19:06.642Z,35.63
2022-08-14T00:19:33.846Z,35.63
2022-08-14T00:20:03.933Z,35.63
2022-08-14T00:20:41.179Z,35.65
2022-08-14T00:21:04.005Z,35.65
2022-08-14T00:21:34.041Z,35.65
2022-08-14T00:22:04.119Z,35.65
2022-08-14T00:22:56.040Z,35.65
2022-08-14T00:23:08.240Z,35.63
2022-08-14T00:23:34.240Z,35.63
2022-08-14T00:24:04.300Z,35.63
2022-08-14T00:24:34.330Z,35.62
2022-08-14T00:25:04.329Z,35.62
2022-08-14T00:25:42.345Z,35.62
2022-08-14T00:26:06.723Z,35.62
2022-08-14T00:26:34.405Z,35.63
2022-08-14T00:27:04.442Z,35.65
2022-08-14T00:27:37.647Z,35.65
2022-08-14T00:28:04.495Z,35.65
2022-08-14T00:28:35.604Z,35.65
2022-08-14T00:29:04.701Z,35.65
2022-08-14T00:29:40.064Z,35.62
2022-08-14T00:30:04.790Z,35.65
2022-08-14T00:30:34.875Z,35.63
2022-08-14T00:31:04.945Z,35.63
2022-08-14T00:31:45.674Z,35.63
2022-08-14T00:32:50.288Z,35.63
2022-08-14T00:32:56.356Z,35.65
2022-08-14T00:33:06.208Z,35.60
2022-08-14T00:33:52.496Z,35.63
2022-08-14T00:34:36.896Z,35.62
2022-08-14T00:34:37.952Z,35.62
2022-08-14T00:35:05.358Z,35.60
2022-08-14T00:36:36.737Z,35.62
2022-08-14T00:36:39.412Z,35.62
2022-08-14T00:36:49.055Z,35.62
2022-08-14T00:37:05.711Z,35.59
2022-08-14T00:37:35.629Z,35.62
2022-08-14T00:38:08.171Z,35.59
2022-08-14T00:38:35.721Z,35.60
2022-08-14T00:39:06.434Z,35.62
2022-08-14T00:39:35.915Z,35.63
2022-08-14T00:40:27.420Z,35.60
2022-08-14T00:40:35.967Z,35.59
2022-08-14T00:41:06.011Z,35.60
2022-08-14T00:41:36.044Z,35.62
2022-08-14T00:42:06.159Z,35.59
2022-08-14T00:42:55.257Z,35.62
2022-08-14T00:43:06.515Z,35.62
2022-08-14T00:43:36.294Z,35.59
2022-08-14T00:44:06.390Z,35.59
2022-08-14T00:44:36.426Z,35.60
2022-08-14T00:45:06.466Z,35.60
2022-08-14T00:45:36.516Z,35.60
2022-08-14T00:46:08.047Z,35.62
2022-08-14T00:46:36.622Z,35.60
2022-08-14T00:47:06.714Z,35.60
2022-08-14T00:47:42.934Z,35.62
2022-08-14T00:48:06.797Z,35.62
2022-08-14T00:48:38.504Z,35.62
2022-08-14T00:49:06.840Z,35.60
2022-08-14T00:49:38.079Z,35.62
2022-08-14T00:50:06.994Z,35.63
2022-08-14T00:50:37.042Z,35.59
2022-08-14T00:51:07.085Z,35.60
2022-08-14T00:51:37.979Z,35.60
2022-08-14T00:52:07.180Z,35.60
2022-08-14T00:52:37.224Z,35.58
2022-08-14T00:53:10.567Z,35.60
2022-08-14T00:53:37.395Z,35.59
2022-08-14T00:54:21.001Z,35.59
2022-08-14T00:54:37.406Z,35.60
2022-08-14T00:55:07.406Z,35.58
2022-08-14T00:55:38.943Z,35.60
2022-08-14T00:56:08.416Z,35.58
2022-08-14T00:56:37.692Z,35.59
2022-08-14T00:57:07.800Z,35.60
2022-08-14T00:57:37.856Z,35.59
2022-08-14T00:58:07.863Z,35.60
2022-08-14T00:58:44.855Z,35.60
2022-08-14T00:59:07.885Z,35.60
2022-08-14T00:59:37.959Z,35.59
2022-08-14T01:00:07.960Z,35.59
2022-08-14T01:00:47.231Z,35.59
2022-08-14T01:01:08.163Z,35.58
2022-08-14T01:01:38.199Z,35.56
2022-08-14T01:02:09.217Z,35.58
2022-08-14T01:02:38.141Z,35.56
2022-08-14T01:03:08.162Z,35.58
2022-08-14T01:03:38.266Z,35.58
2022-08-14T01:04:08.262Z,35.60
2022-08-14T01:04:53.506Z,35.58
2022-08-14T01:05:08.318Z,35.55
2022-08-14T01:05:41.644Z,35.56
2022-08-14T01:06:08.374Z,35.55
2022-08-14T01:06:38.384Z,35.58
2022-08-14T01:07:09.057Z,35.58
2022-08-14T01:07:38.546Z,35.55
2022-08-14T01:08:50.508Z,35.59
2022-08-14T01:08:52.395Z,35.58
2022-08-14T01:09:08.593Z,35.58
2022-08-14T01:09:39.228Z,35.58
2022-08-14T01:10:08.734Z,35.55
2022-08-14T01:10:40.303Z,35.58
2022-08-14T01:11:09.636Z,35.56
2022-08-14T01:11:38.941Z,35.58
2022-08-14T01:12:08.993Z,35.58
2022-08-14T01:12:40.749Z,35.56
2022-08-14T01:13:09.145Z,35.58
2022-08-14T01:13:42.658Z,35.55
2022-08-14T01:14:25.549Z,35.59
2022-08-14T01:14:40.734Z,35.58
2022-08-14T01:15:09.809Z,35.58
2022-08-14T01:15:57.964Z,35.55
2022-08-14T01:16:09.511Z,35.55
2022-08-14T01:16:39.547Z,35.58
2022-08-14T01:17:09.594Z,35.58
2022-08-14T01:17:42.863Z,35.56
2022-08-14T01:18:09.659Z,35.55
2022-08-14T01:18:39.702Z,35.55
2022-08-14T01:19:09.790Z,35.56
2022-08-14T01:19:41.331Z,35.56
2022-08-14T01:20:09.883Z,35.58
2022-08-14T01:20:40.900Z,35.56
2022-08-14T01:21:11.244Z,35.55
2022-08-14T01:21:46.949Z,35.55
2022-08-14T01:22:12.361Z,35.56
2022-08-14T01:22:40.203Z,35.55
2022-08-14T01:23:10.253Z,35.56
2022-08-14T01:23:46.565Z,35.53
2022-08-14T01:24:11.021Z,35.55
2022-08-14T01:24:40.452Z,35.58
2022-08-14T01:25:10.554Z,35.55
2022-08-14T01:25:40.602Z,35.58
2022-08-14T01:26:11.666Z,35.55
2022-08-14T01:26:40.826Z,35.55
2022-08-14T01:27:10.878Z,35.53
2022-08-14T01:27:52.740Z,35.53
2022-08-14T01:28:11.298Z,35.55
2022-08-14T01:28:56.256Z,35.55
2022-08-14T01:29:16.318Z,35.55
2022-08-14T01:30:03.825Z,35.56
2022-08-14T01:30:11.188Z,35.53
2022-08-14T01:30:41.246Z,35.53
2022-08-14T01:31:11.267Z,35.51
2022-08-14T01:31:41.298Z,35.53
2022-08-14T01:32:11.340Z,35.52
2022-08-14T01:32:42.566Z,35.53
2022-08-14T01:33:11.394Z,35.52
2022-08-14T01:33:59.157Z,35.52
2022-08-14T01:35:17.356Z,35.52
2022-08-14T01:35:17.568Z,35.51
2022-08-14T01:35:18.631Z,35.53
2022-08-14T01:36:05.674Z,35.52
2022-08-14T01:36:22.825Z,35.53
2022-08-14T01:36:41.772Z,35.52
2022-08-14T01:37:11.796Z,35.53
2022-08-14T01:37:44.013Z,35.53
2022-08-14T01:38:11.993Z,35.52
2022-08-14T01:38:44.176Z,35.52
2022-08-14T01:39:13.181Z,35.53
2022-08-14T01:39:42.174Z,35.53
2022-08-14T01:40:12.084Z,35.53
2022-08-14T01:40:42.227Z,35.53
2022-08-14T01:41:14.952Z,35.53
2022-08-14T01:41:42.253Z,35.52
2022-08-14T01:42:31.319Z,35.52
2022-08-14T01:42:42.569Z,35.55
2022-08-14T01:43:12.482Z,35.52
2022-08-14T01:43:42.521Z,35.53
2022-08-14T01:44:32.551Z,35.53
2022-08-14T01:44:42.699Z,35.49
2022-08-14T01:45:12.627Z,35.51
2022-08-14T01:45:42.681Z,35.49
2022-08-14T01:46:24.523Z,35.51
2022-08-14T01:46:42.792Z,35.49
2022-08-14T01:47:21.427Z,35.51
2022-08-14T01:47:42.886Z,35.51
2022-08-14T01:48:13.901Z,35.49
2022-08-14T01:48:43.021Z,35.49
2022-08-14T01:49:13.158Z,35.51
2022-08-14T01:49:58.936Z,35.52
2022-08-14T01:50:14.342Z,35.52
2022-08-14T01:50:44.229Z,35.51
2022-08-14T01:51:19.237Z,35.51
2022-08-14T01:51:43.356Z,35.51
2022-08-14T01:52:34.570Z,35.49
2022-08-14T01:52:59.384Z,35.49
2022-08-14T01:53:13.500Z,35.49
2022-08-14T01:53:43.552Z,35.49
2022-08-14T01:54:14.269Z,35.52
2022-08-14T01:54:43.623Z,35.47
2022-08-14T01:55:13.676Z,35.49
2022-08-14T01:55:43.714Z,35.48
2022-08-14T01:56:18.282Z,35.48
2022-08-14T01:56:44.509Z,35.47
2022-08-14T01:57:13.864Z,35.49
2022-08-14T01:58:00.842Z,35.49
2022-08-14T01:58:19.491Z,35.49
2022-08-14T01:58:57.201Z,35.49
2022-08-14T01:59:14.655Z,35.48
2022-08-14T01:59:43.986Z,35.48
2022-08-14T02:00:13.951Z,35.49
2022-08-14T02:00:43.967Z,35.48
2022-08-14T02:01:14.045Z,35.47
2022-08-14T02:02:22.881Z,35.45
2022-08-14T02:02:52.984Z,35.42
2022-08-14T02:03:23.067Z,35.44
2022-08-14T02:03:56.949Z,35.44
2022-08-14T02:04:54.804Z,35.42
2022-08-14T02:04:56.857Z,35.41
2022-08-14T02:05:23.448Z,35.42
2022-08-14T02:05:53.533Z,35.39
2022-08-14T02:06:33.281Z,35.41
2022-08-14T02:06:54.105Z,35.39
2022-08-14T02:07:34.303Z,35.41
2022-08-14T02:08:09.171Z,35.39
2022-08-14T02:08:35.322Z,35.41
2022-08-14T02:08:55.232Z,35.41
2022-08-14T02:09:24.072Z,35.39
2022-08-14T02:09:55.923Z,35.42
2022-08-14T02:10:26.201Z,35.39
2022-08-14T02:10:54.336Z,35.41
2022-08-14T02:11:24.457Z,35.41
2022-08-14T02:11:54.809Z,35.42
2022-08-14T02:12:26.355Z,35.44
2022-08-14T02:12:57.624Z,35.42
2022-08-14T02:13:24.563Z,35.41
2022-08-14T02:13:54.561Z,35.41
2022-08-14T02:14:31.369Z,35.39
2022-08-14T02:15:00.744Z,35.41
2022-08-14T02:15:24.607Z,35.42
2022-08-14T02:15:54.611Z,35.44
2022-08-14T02:16:24.627Z,35.41
2022-08-14T02:16:54.881Z,35.42
2022-08-14T02:17:24.710Z,35.42
2022-08-14T02:17:54.709Z,35.39
2022-08-14T02:18:24.718Z,35.41
2022-08-14T02:18:54.795Z,35.45
2022-08-14T02:19:24.838Z,35.44
2022-08-14T02:19:54.867Z,35.45
2022-08-14T02:20:24.866Z,35.42
2022-08-14T02:20:54.864Z,35.44
2022-08-14T02:21:24.921Z,35.42
2022-08-14T02:21:54.921Z,35.44
2022-08-14T02:22:32.478Z,35.42
2022-08-14T02:22:55.238Z,35.41
2022-08-14T02:23:31.907Z,35.41
2022-08-14T02:23:55.037Z,35.42
2022-08-14T02:24:40.439Z,35.42
2022-08-14T02:24:55.080Z,35.44
2022-08-14T02:25:29.881Z,35.39
2022-08-14T02:25:55.194Z,35.41
2022-08-14T02:26:29.222Z,35.44
2022-08-14T02:28:18.712Z,35.42
2022-08-14T02:28:23.428Z,35.41
2022-08-14T02:28:24.028Z,35.41
2022-08-14T02:28:56.960Z,35.39
2022-08-14T02:28:57.893Z,35.39
2022-08-14T02:29:25.456Z,35.42
2022-08-14T02:29:59.102Z,35.39
2022-08-14T02:30:25.492Z,35.41
2022-08-14T02:30:55.512Z,35.39
2022-08-14T02:31:28.485Z,35.39
2022-08-14T02:31:55.557Z,35.39
2022-08-14T02:32:30.609Z,35.41
2022-08-14T02:32:55.665Z,35.39
2022-08-14T02:33:25.778Z,35.42
2022-08-14T02:33:55.789Z,35.41
2022-08-14T02:34:27.396Z,35.41
2022-08-14T02:34:55.871Z,35.41
2022-08-14T02:35:26.571Z,35.41
2022-08-14T02:36:00.557Z,35.39
2022-08-14T02:37:02.684Z,35.41
2022-08-14T02:37:04.948Z,35.39
2022-08-14T02:37:26.006Z,35.39
2022-08-14T02:37:56.024Z,35.41
2022-08-14T02:38:30.468Z,35.42
2022-08-14T02:38:56.036Z,35.42
2022-08-14T02:39:26.160Z,35.41
2022-08-14T02:39:56.163Z,35.39
2022-08-14T02:40:32.548Z,35.41
2022-08-14T02:40:56.180Z,35.39
2022-08-14T02:41:28.614Z,35.39
2022-08-14T02:41:58.165Z,35.37
2022-08-14T02:42:37.177Z,35.38
2022-08-14T02:42:57.617Z,35.41
2022-08-14T02:43:36.340Z,35.39
2022-08-14T02:44:00.792Z,35.41
2022-08-14T02:44:29.729Z,35.39
2022-08-14T02:44:56.512Z,35.39
2022-08-14T02:45:33.595Z,35.39
2022-08-14T02:45:56.626Z,35.38
2022-08-14T02:46:27.030Z,35.39
2022-08-14T02:47:01.558Z,35.39
2022-08-14T02:47:26.686Z,35.39
2022-08-14T02:47:57.429Z,35.39
2022-08-14T02:49:03.871Z,35.39
2022-08-14T02:49:04.190Z,35.38
2022-08-14T02:49:26.808Z,35.38
2022-08-14T02:49:57.035Z,35.39
2022-08-14T02:50:27.357Z,35.35
2022-08-14T02:50:56.965Z,35.38
2022-08-14T02:51:30.426Z,35.38
2022-08-14T02:51:56.989Z,35.38
2022-08-14T02:52:57.798Z,35.39
2022-08-14T02:53:03.150Z,35.38
2022-08-14T02:53:27.029Z,35.38
2022-08-14T02:53:57.052Z,35.38
2022-08-14T02:54:27.044Z,35.38
2022-08-14T02:54:57.059Z,35.38
2022-08-14T02:55:27.121Z,35.39
2022-08-14T02:56:02.415Z,35.37
2022-08-14T02:56:30.896Z,35.39
2022-08-14T02:57:37.532Z,35.39
2022-08-14T02:57:39.197Z,35.38
2022-08-14T02:58:03.151Z,35.35
2022-08-14T02:58:30.390Z,35.37
2022-08-14T02:58:57.292Z,35.37
2022-08-14T02:59:28.830Z,35.35
2022-08-14T02:59:57.408Z,35.38
2022-08-14T03:00:27.456Z,35.35
2022-08-14T03:00:57.618Z,35.38
2022-08-14T03:01:31.372Z,35.37
2022-08-14T03:01:57.693Z,35.35
2022-08-14T03:02:49.516Z,35.37
2022-08-14T03:02:59.434Z,35.35
2022-08-14T03:03:27.760Z,35.37
2022-08-14T03:03:57.805Z,35.38
2022-08-14T03:04:27.838Z,35.39
2022-08-14T03:04:57.890Z,35.37
2022-08-14T03:05:27.958Z,35.37
2022-08-14T03:05:58.041Z,35.38
2022-08-14T03:06:49.024Z,35.39
2022-08-14T03:07:07.664Z,35.34
2022-08-14T03:07:28.237Z,35.38
2022-08-14T03:07:58.349Z,35.37
2022-08-14T03:08:28.403Z,35.37
2022-08-14T03:08:58.470Z,35.37
2022-08-14T03:10:26.129Z,35.38
2022-08-14T03:10:27.106Z,35.34
2022-08-14T03:10:32.301Z,35.35
2022-08-14T03:10:58.805Z,35.35
2022-08-14T03:11:34.732Z,35.37
2022-08-14T03:11:58.896Z,35.35
2022-08-14T03:12:32.337Z,35.37
2022-08-14T03:12:59.010Z,35.35
2022-08-14T03:13:29.618Z,35.34
2022-08-14T03:13:59.549Z,35.35
2022-08-14T03:14:29.247Z,35.34
2022-08-14T03:14:59.330Z,35.34
2022-08-14T03:15:29.379Z,35.37
2022-08-14T03:15:59.386Z,35.35
2022-08-14T03:16:29.405Z,35.35
2022-08-14T03:16:59.486Z,35.35
2022-08-14T03:17:31.905Z,35.34
2022-08-14T03:17:59.514Z,35.35
2022-08-14T03:18:32.017Z,35.34
2022-08-14T03:18:59.913Z,35.34
2022-08-14T03:19:29.569Z,35.34
2022-08-14T03:19:59.566Z,35.35
2022-08-14T03:20:29.569Z,35.35
2022-08-14T03:20:59.572Z,35.35
2022-08-14T03:21:29.569Z,35.35
2022-08-14T03:21:59.615Z,35.35
2022-08-14T03:22:30.000Z,35.35
2022-08-14T03:23:00.291Z,35.35
2022-08-14T03:23:29.644Z,35.34
2022-08-14T03:23:59.653Z,35.34
2022-08-14T03:24:29.646Z,35.35
2022-08-14T03:24:59.653Z,35.34
2022-08-14T03:25:29.665Z,35.35
2022-08-14T03:25:59.661Z,35.35
2022-08-14T03:26:30.904Z,35.35
2022-08-14T03:26:59.803Z,35.34
2022-08-14T03:27:35.478Z,35.35
2022-08-14T03:28:02.752Z,35.32
2022-08-14T03:28:33.096Z,35.34
2022-08-14T03:29:01.159Z,35.32
2022-08-14T03:29:29.963Z,35.32
2022-08-14T03:29:59.965Z,35.32
2022-08-14T03:30:38.908Z,35.32
2022-08-14T03:31:00.254Z,35.32
2022-08-14T03:31:30.298Z,35.31
2022-08-14T03:32:00.191Z,35.34
2022-08-14T03:32:30.534Z,35.32
2022-08-14T03:33:00.212Z,35.32
2022-08-14T03:33:37.870Z,35.31
2022-08-14T03:34:00.553Z,35.32
2022-08-14T03:34:48.087Z,35.35
2022-08-14T03:35:00.255Z,35.32
2022-08-14T03:35:37.472Z,35.32
2022-08-14T03:36:07.695Z,35.32
2022-08-14T03:37:28.543Z,35.34
2022-08-14T03:37:38.906Z,35.32
2022-08-14T03:38:01.612Z,35.32
2022-08-14T03:39:13.130Z,35.34
2022-08-14T03:39:13.670Z,35.31
2022-08-14T03:39:14.959Z,35.31
2022-08-14T03:39:30.477Z,35.31
2022-08-14T03:40:00.707Z,35.30
2022-08-14T03:40:30.438Z,35.32
2022-08-14T03:41:00.434Z,35.31
2022-08-14T03:41:33.213Z,35.31
2022-08-14T03:42:01.732Z,35.31
2022-08-14T03:42:31.118Z,35.30
2022-08-14T03:43:00.610Z,35.31
2022-08-14T03:43:32.623Z,35.30
2022-08-14T03:45:15.653Z,35.28
2022-08-14T03:45:18.844Z,35.32
2022-08-14T03:45:27.736Z,35.30
2022-08-14T03:45:35.034Z,35.30
2022-08-14T03:46:00.838Z,35.28
2022-08-14T03:46:51.976Z,35.31
2022-08-14T03:47:03.082Z,35.30
2022-08-14T03:47:46.698Z,35.30
2022-08-14T03:48:02.077Z,35.28
2022-08-14T03:48:31.587Z,35.31
2022-08-14T03:49:01.132Z,35.27
2022-08-14T03:49:31.197Z,35.31
2022-08-14T03:50:01.283Z,35.28
2022-08-14T03:50:32.471Z,35.31
2022-08-14T03:51:01.703Z,35.30
2022-08-14T03:51:31.440Z,35.31
2022-08-14T03:52:01.461Z,35.31
2022-08-14T03:52:39.367Z,35.28
2022-08-14T03:53:01.865Z,35.28
2022-08-14T03:53:31.498Z,35.28
2022-08-14T03:54:01.583Z,35.28
2022-08-14T03:54:31.691Z,35.30
2022-08-14T03:55:01.708Z,35.28
2022-08-14T03:55:31.955Z,35.31
2022-08-14T03:56:01.798Z,35.27
2022-08-14T03:56:31.843Z,35.28
2022-08-14T03:57:02.782Z,35.28
2022-08-14T03:57:32.018Z,35.28
2022-08-14T03:58:02.018Z,35.28
2022-08-14T03:58:36.497Z,35.28
2022-08-14T03:59:02.087Z,35.27
2022-08-14T03:59:32.134Z,35.28
2022-08-14T04:00:02.175Z,35.28
2022-08-14T04:00:43.597Z,35.28
2022-08-14T04:01:02.251Z,35.30
2022-08-14T04:01:39.072Z,35.27
2022-08-14T04:02:04.346Z,35.27
2022-08-14T04:02:46.815Z,35.27
2022-08-14T04:03:02.395Z,35.28
2022-08-14T04:03:32.458Z,35.28
2022-08-14T04:04:02.467Z,35.25
2022-08-14T04:04:33.384Z,35.30
2022-08-14T04:05:11.838Z,35.25
2022-08-14T04:05:42.555Z,35.28
2022-08-14T04:06:02.861Z,35.25
2022-08-14T04:06:32.863Z,35.27
2022-08-14T04:07:02.983Z,35.25
2022-08-14T04:07:36.056Z,35.24
2022-08-14T04:08:23.052Z,35.25
2022-08-14T04:08:33.250Z,35.30
2022-08-14T04:09:03.334Z,35.27
2022-08-14T04:09:33.420Z,35.25
2022-08-14T04:10:03.502Z,35.27
2022-08-14T04:10:33.602Z,35.27
2022-08-14T04:11:07.804Z,35.28
2022-08-14T04:11:33.743Z,35.27
2022-08-14T04:12:03.791Z,35.28
2022-08-14T04:12:33.859Z,35.27
2022-08-14T04:13:04.217Z,35.25
2022-08-14T04:13:34.617Z,35.27
2022-08-14T04:14:04.017Z,35.27
2022-08-14T04:14:37.310Z,35.25
2022-08-14T04:15:04.125Z,35.25
2022-08-14T04:15:56.208Z,35.25
2022-08-14T04:16:05.091Z,35.24
2022-08-14T04:16:34.246Z,35.27
2022-08-14T04:17:04.257Z,35.27
2022-08-14T04:17:34.283Z,35.25
2022-08-14T04:18:04.283Z,35.27
2022-08-14T04:18:34.290Z,35.24
2022-08-14T04:19:04.283Z,35.25
2022-08-14T04:19:36.521Z,35.25
2022-08-14T04:20:04.375Z,35.25
2022-08-14T04:20:34.373Z,35.25
2022-08-14T04:21:04.393Z,35.25
2022-08-14T04:21:53.010Z,35.24
2022-08-14T04:22:04.514Z,35.22
2022-08-14T04:22:34.481Z,35.24
2022-08-14T04:23:04.484Z,35.25
2022-08-14T04:23:34.553Z,35.25
2022-08-14T04:24:04.563Z,35.24
2022-08-14T04:24:37.837Z,35.25
2022-08-14T04:25:05.304Z,35.24
2022-08-14T04:25:34.814Z,35.25
2022-08-14T04:26:04.890Z,35.22
2022-08-14T04:26:42.016Z,35.21
2022-08-14T04:27:04.980Z,35.22
2022-08-14T04:28:02.574Z,35.22
2022-08-14T04:28:05.015Z,35.24
2022-08-14T04:29:08.463Z,35.21
2022-08-14T04:29:14.173Z,35.21
2022-08-14T04:29:35.181Z,35.22
2022-08-14T04:30:05.469Z,35.22
2022-08-14T04:30:35.268Z,35.22
2022-08-14T04:31:05.362Z,35.22
2022-08-14T04:32:57.474Z,35.20
2022-08-14T04:32:58.072Z,35.22
2022-08-14T04:33:02.204Z,35.22
2022-08-14T04:33:12.126Z,35.20
2022-08-14T04:33:35.475Z,35.21
2022-08-14T04:34:05.588Z,35.20
2022-08-14T04:34:35.593Z,35.21
2022-08-14T04:35:10.473Z,35.20
2022-08-14T04:35:55.890Z,35.20
2022-08-14T04:36:05.637Z,35.24
2022-08-14T04:36:36.215Z,35.20
2022-08-14T04:37:07.468Z,35.20
2022-08-14T04:37:35.846Z,35.20
2022-08-14T04:38:07.814Z,35.21
2022-08-14T04:38:38.257Z,35.18
2022-08-14T04:39:05.967Z,35.18
2022-08-14T04:39:36.074Z,35.18
2022-08-14T04:40:06.054Z,35.20
2022-08-14T04:40:36.158Z,35.17
2022-08-14T04:41:06.180Z,35.18
2022-08-14T04:41:36.181Z,35.20
2022-08-14T04:42:09.258Z,35.20
2022-08-14T04:42:36.370Z,35.20
2022-08-14T04:43:06.312Z,35.20
2022-08-14T04:43:38.730Z,35.18
2022-08-14T04:44:06.420Z,35.17
2022-08-14T04:44:37.238Z,35.18
2022-08-14T04:45:06.432Z,35.18
2022-08-14T04:45:36.430Z,35.18
2022-08-14T04:46:06.840Z,35.20
2022-08-14T04:46:55.790Z,35.21
2022-08-14T04:47:06.577Z,35.21
2022-08-14T04:47:36.605Z,35.17
2022-08-14T04:48:06.627Z,35.20
2022-08-14T04:48:41.155Z,35.18
2022-08-14T04:49:07.980Z,35.20
2022-08-14T04:49:38.453Z,35.18
2022-08-14T04:50:06.773Z,35.21
2022-08-14T04:50:44.101Z,35.18
2022-08-14T04:51:06.788Z,35.18
2022-08-14T04:51:46.201Z,35.17
2022-08-14T04:52:15.475Z,35.17
2022-08-14T04:52:37.381Z,35.20
2022-08-14T04:53:06.834Z,35.18
2022-08-14T04:53:42.855Z,35.17
2022-08-14T04:54:06.891Z,35.15
2022-08-14T04:54:36.918Z,35.17
2022-08-14T04:55:06.913Z,35.18
2022-08-14T04:55:36.908Z,35.18
2022-08-14T04:56:31.682Z,35.17
2022-08-14T04:56:36.949Z,35.15
2022-08-14T04:57:06.955Z,35.17
2022-08-14T04:57:37.003Z,35.17
2022-08-14T04:58:06.994Z,35.17
2022-08-14T04:58:37.014Z,35.15
2022-08-14T04:59:10.110Z,35.15
2022-08-14T04:59:37.205Z,35.17
2022-08-14T05:00:07.222Z,35.17
2022-08-14T05:00:37.242Z,35.15
2022-08-14T05:01:12.949Z,35.18
2022-08-14T05:01:39.843Z,35.14
2022-08-14T05:02:07.402Z,35.14
2022-08-14T05:02:37.482Z,35.17
2022-08-14T05:03:07.659Z,35.15
2022-08-14T05:03:37.597Z,35.17
2022-08-14T05:04:07.525Z,35.15
2022-08-14T05:04:39.711Z,35.15
2022-08-14T05:05:07.720Z,35.17
2022-08-14T05:05:37.766Z,35.14
2022-08-14T05:06:07.771Z,35.15
2022-08-14T05:06:39.779Z,35.15
2022-08-14T05:07:07.821Z,35.15
2022-08-14T05:07:54.180Z,35.15
2022-08-14T05:08:09.621Z,35.17
2022-08-14T05:08:50.711Z,35.15
2022-08-14T05:09:10.513Z,35.17
2022-08-14T05:09:38.276Z,35.15
2022-08-14T05:10:13.232Z,35.14
2022-08-14T05:10:42.267Z,35.15
2022-08-14T05:11:08.489Z,35.14
2022-08-14T05:11:38.587Z,35.11
2022-08-14T05:13:10.990Z,35.13
2022-08-14T05:13:13.019Z,35.14
2022-08-14T05:13:14.480Z,35.14
2022-08-14T05:13:59.594Z,35.14
2022-08-14T05:14:33.957Z,35.14
2022-08-14T05:14:53.454Z,35.13
2022-08-14T05:15:08.810Z,35.13
2022-08-14T05:15:39.613Z,35.13
2022-08-14T05:16:08.930Z,35.11
2022-08-14T05:16:38.960Z,35.14
2022-08-14T05:17:09.017Z,35.14
2022-08-14T05:17:43.967Z,35.13
2022-08-14T05:18:17.824Z,35.11
2022-08-14T05:19:18.344Z,35.11
2022-08-14T05:19:18.755Z,35.13
2022-08-14T05:19:44.409Z,35.14
2022-08-14T05:21:58.098Z,35.13
2022-08-14T05:21:58.291Z,35.10
2022-08-14T05:22:00.013Z,35.10
2022-08-14T05:22:00.059Z,35.10
2022-08-14T05:22:16.414Z,35.11
2022-08-14T05:22:39.265Z,35.11
2022-08-14T05:23:11.140Z,35.11
2022-08-14T05:23:39.323Z,35.11
2022-08-14T05:24:09.395Z,35.11
2022-08-14T05:24:39.419Z,35.11
2022-08-14T05:25:09.482Z,35.13
2022-08-14T05:25:39.562Z,35.13
2022-08-14T05:26:09.556Z,35.11
2022-08-14T05:26:39.565Z,35.10
2022-08-14T05:27:09.656Z,35.11
2022-08-14T05:27:39.777Z,35.11
2022-08-14T05:28:14.191Z,35.14
2022-08-14T05:28:39.793Z,35.11
2022-08-14T05:29:11.622Z,35.11
2022-08-14T05:29:39.911Z,35.13
2022-08-14T05:30:09.993Z,35.08
2022-08-14T05:30:40.048Z,35.13
2022-08-14T05:31:10.077Z,35.13
2022-08-14T05:31:40.283Z,35.11
2022-08-14T05:32:10.174Z,35.11
2022-08-14T05:32:40.211Z,35.11
2022-08-14T05:33:10.189Z,35.13
2022-08-14T05:33:40.203Z,35.10
2022-08-14T05:34:10.257Z,35.14
2022-08-14T05:34:40.208Z,35.11
2022-08-14T05:35:10.221Z,35.11
2022-08-14T05:35:42.455Z,35.11
2022-08-14T05:36:16.679Z,35.11
2022-08-14T05:36:40.395Z,35.13
2022-08-14T05:37:10.430Z,35.11
2022-08-14T05:37:40.500Z,35.13
2022-08-14T05:38:11.017Z,35.11
2022-08-14T05:38:40.536Z,35.08
2022-08-14T05:39:10.533Z,35.10
2022-08-14T05:39:40.872Z,35.13
2022-08-14T05:40:10.710Z,35.10
2022-08-14T05:40:40.730Z,35.10
2022-08-14T05:41:10.842Z,35.11
2022-08-14T05:41:52.526Z,35.08
2022-08-14T05:42:21.456Z,35.07
2022-08-14T05:42:41.013Z,35.10
2022-08-14T05:43:11.030Z,35.10
2022-08-14T05:43:41.976Z,35.10
2022-08-14T05:44:11.254Z,35.08
2022-08-14T05:44:41.247Z,35.07
2022-08-14T05:45:13.456Z,35.08
2022-08-14T05:45:41.329Z,35.11
2022-08-14T05:46:11.448Z,35.10
2022-08-14T05:46:41.513Z,35.10
2022-08-14T05:47:11.564Z,35.10
2022-08-14T05:47:41.600Z,35.08
2022-08-14T05:48:11.665Z,35.07
2022-08-14T05:48:43.318Z,35.08
2022-08-14T05:49:11.745Z,35.07
2022-08-14T05:49:41.786Z,35.07
2022-08-14T05:50:18.381Z,35.11
2022-08-14T05:50:42.129Z,35.10
2022-08-14T05:51:11.888Z,35.08
2022-08-14T05:51:41.910Z,35.08
2022-08-14T05:52:11.954Z,35.08
2022-08-14T05:52:41.974Z,35.08
2022-08-14T05:53:12.075Z,35.10
2022-08-14T05:53:42.519Z,35.05
2022-08-14T05:54:16.145Z,35.11
2022-08-14T05:54:42.094Z,35.08
2022-08-14T05:55:12.208Z,35.08
2022-08-14T05:55:42.877Z,35.10
2022-08-14T05:56:12.352Z,35.08
2022-08-14T05:56:42.437Z,35.08
2022-08-14T05:57:12.517Z,35.08
2022-08-14T05:57:42.532Z,35.07
2022-08-14T05:58:12.609Z,35.08
2022-08-14T05:58:42.604Z,35.07
2022-08-14T05:59:12.661Z,35.07
2022-08-14T05:59:42.755Z,35.07
2022-08-14T06:00:12.806Z,35.08
2022-08-14T06:00:42.833Z,35.07
2022-08-14T06:01:13.011Z,35.08
2022-08-14T06:01:43.054Z,35.08
2022-08-14T06:02:13.078Z,35.05
2022-08-14T06:02:43.347Z,35.07
2022-08-14T06:03:13.242Z,35.08
2022-08-14T06:03:43.330Z,35.07
2022-08-14T06:04:13.438Z,35.08
2022-08-14T06:04:43.440Z,35.07
2022-08-14T06:05:13.526Z,35.07
2022-08-14T06:05:43.594Z,35.10
2022-08-14T06:06:13.682Z,35.05
2022-08-14T06:06:43.707Z,35.08
2022-08-14T06:07:13.785Z,35.07
2022-08-14T06:07:43.900Z,35.07
2022-08-14T06:08:31.337Z,35.05
2022-08-14T06:08:43.919Z,35.04
2022-08-14T06:09:14.001Z,35.05
2022-08-14T06:09:52.293Z,35.05
2022-08-14T06:10:14.206Z,35.04
2022-08-14T06:10:44.280Z,35.05
2022-08-14T06:11:20.067Z,35.07
2022-08-14T06:11:44.483Z,35.03
2022-08-14T06:12:14.515Z,35.04
2022-08-14T06:13:00.178Z,35.05
2022-08-14T06:13:14.557Z,35.04
2022-08-14T06:13:45.995Z,35.05
2022-08-14T06:14:21.417Z,35.05
2022-08-14T06:14:44.591Z,35.07
2022-08-14T06:15:14.708Z,35.03
2022-08-14T06:15:44.735Z,35.03
2022-08-14T06:16:14.850Z,35.04
2022-08-14T06:16:44.932Z,35.04
2022-08-14T06:17:24.699Z,35.04
2022-08-14T06:17:47.037Z,35.04
2022-08-14T06:18:15.100Z,35.04
2022-08-14T06:18:45.199Z,35.01
2022-08-14T06:19:18.130Z,35.04
2022-08-14T06:19:45.241Z,35.03
2022-08-14T06:20:15.357Z,35.03
2022-08-14T06:20:45.376Z,35.05
2022-08-14T06:21:15.439Z,35.03
2022-08-14T06:21:45.431Z,35.03
2022-08-14T06:22:15.460Z,35.01
2022-08-14T06:22:45.730Z,35.05
2022-08-14T06:23:15.607Z,35.03
2022-08-14T06:23:45.603Z,35.05
2022-08-14T06:24:18.270Z,35.04
2022-08-14T06:24:45.750Z,35.04
2022-08-14T06:25:16.211Z,35.01
2022-08-14T06:25:45.807Z,35.03
2022-08-14T06:26:15.830Z,35.03
2022-08-14T06:26:55.145Z,35.05
2022-08-14T06:27:16.238Z,35.05